Terminal Aerodrome Forecast
Issued by NWS

Home | Current Version | Previous Version | Text Only | Print | Product List | Glossary Off
Versions: 1 2 3 4 5 6 7 8 9 10 11 12 13 14 15 16 17 18

000
FTUS43 KABR 231100
TAFPIR
TAF
KPIR 231121Z 2312/2412 13026G36KT P6SM VCSH BKN120
     FM232100 28022G30KT P6SM VCTS BKN040CB BKN250
     FM240000 31027G35KT P6SM FEW250
     FM240300 32011KT P6SM BKN250=

USA.gov is the U.S. government's official web portal to all federal, state and local government web resources and services.